Time;durP1;ratioP1;P1;durP2;ratioP2;P2;SDS_P1;SDS_P2;PMS_P1;PMS_P2;Temp;Humidity;BMP_temperature;BMP_pressure;BME280_temperature;BME280_humidity;BME280_pressure;Samples;Min_cycle;Max_cycle;Signal;HPM_P1;HPM_P2
2022/11/02 00:01:47;;;;;;;4.33;1.72;;;;;;;0.22;100.00;101017.38;1687071;83;20995;-81
2022/11/02 00:04:33;;;;;;;4.17;2.83;;;;;;;0.19;100.00;101017.78;1683023;82;21128;-81
2022/11/02 00:07:17;;;;;;;5.80;3.35;;;;;;;0.16;100.00;101008.78;1706425;81;21428;-81
2022/11/02 00:10:02;;;;;;;6.12;3.37;;;;;;;0.09;100.00;100997.16;1683522;83;21153;-81
2022/11/02 00:12:47;;;;;;;5.90;2.72;;;;;;;-0.01;100.00;100992.95;1682866;83;21023;-81
2022/11/02 00:15:33;;;;;;;9.83;3.55;;;;;;;-0.07;100.00;100980.31;1656084;84;21036;-81
2022/11/02 00:18:18;;;;;;;6.90;3.90;;;;;;;-0.06;100.00;100984.65;1707047;82;21029;-81
2022/11/02 00:21:03;;;;;;;7.87;3.80;;;;;;;-0.05;100.00;100981.44;1708841;82;21001;-81
2022/11/02 00:23:49;;;;;;;6.85;3.65;;;;;;;-0.02;100.00;100979.21;1686343;83;21007;-81
2022/11/02 00:26:35;;;;;;;6.58;3.47;;;;;;;0.03;100.00;100989.89;1633974;86;21144;-81
2022/11/02 00:29:20;;;;;;;4.60;3.27;;;;;;;0.07;100.00;100983.90;1693330;81;20951;-81
2022/11/02 00:32:04;;;;;;;6.95;3.40;;;;;;;0.11;100.00;100970.91;1662433;84;21117;-81
2022/11/02 00:34:49;;;;;;;4.85;2.70;;;;;;;0.14;100.00;100967.83;1704658;81;21383;-81
2022/11/02 00:37:35;;;;;;;6.15;3.35;;;;;;;0.16;100.00;100967.12;1640797;84;21134;-81
2022/11/02 00:40:20;;;;;;;8.28;3.85;;;;;;;0.20;100.00;100970.56;1668605;84;21513;-81
2022/11/02 00:43:06;;;;;;;7.12;3.15;;;;;;;0.23;100.00;100965.30;1666867;84;21038;-81
2022/11/02 00:45:51;;;;;;;5.90;2.83;;;;;;;0.25;100.00;100961.91;1668690;83;21422;-81
2022/11/02 00:48:37;;;;;;;6.12;2.80;;;;;;;0.25;100.00;100959.22;1660725;85;21034;-81
2022/11/02 00:51:21;;;;;;;6.78;2.80;;;;;;;0.24;100.00;100950.82;1683518;83;21024;-81
2022/11/02 00:54:06;;;;;;;9.85;3.42;;;;;;;0.24;100.00;100949.48;1683667;82;21010;-81
2022/11/02 00:56:52;;;;;;;8.85;4.03;;;;;;;0.24;100.00;100945.44;1684645;84;21059;-81
2022/11/02 00:59:36;;;;;;;7.15;3.60;;;;;;;0.22;100.00;100943.47;1694320;82;21428;-81
2022/11/02 01:02:21;;;;;;;6.80;2.72;;;;;;;0.21;100.00;100943.16;1691603;81;21037;-81
2022/11/02 01:05:07;;;;;;;7.30;2.60;;;;;;;0.22;100.00;100942.13;1698823;81;20921;-81
2022/11/02 01:07:53;;;;;;;4.00;2.95;;;;;;;0.23;100.00;100935.73;1694965;81;20962;-81
2022/11/02 01:10:38;;;;;;;7.62;3.08;;;;;;;0.21;100.00;100939.95;1698620;82;21426;-81
2022/11/02 01:13:23;;;;;;;6.80;4.12;;;;;;;0.21;100.00;100935.09;1699508;82;21465;-81
2022/11/02 01:16:10;;;;;;;16.35;6.35;;;;;;;0.23;100.00;100926.33;1690855;83;20997;-81
2022/11/02 01:18:55;;;;;;;20.17;6.78;;;;;;;0.25;100.00;100924.27;1697820;82;21068;-81
2022/11/02 01:21:40;;;;;;;10.80;5.50;;;;;;;0.29;100.00;100931.41;1688704;82;21621;-81
2022/11/02 01:24:24;;;;;;;7.83;4.30;;;;;;;0.32;100.00;100933.20;1640442;85;20961;-81
2022/11/02 01:27:09;;;;;;;9.98;4.28;;;;;;;0.36;100.00;100942.50;1696848;83;21002;-81
2022/11/02 01:29:55;;;;;;;13.50;4.60;;;;;;;0.41;100.00;100941.39;1650538;85;21177;-81
2022/11/02 01:32:40;;;;;;;8.60;4.28;;;;;;;0.45;100.00;100939.14;1708499;82;21074;-81
2022/11/02 01:35:25;;;;;;;8.98;3.72;;;;;;;0.49;100.00;100931.48;1711853;81;21029;-81
2022/11/02 01:38:09;;;;;;;8.73;3.33;;;;;;;0.52;100.00;100928.39;1698463;82;20982;-81
2022/11/02 01:40:53;;;;;;;9.50;4.08;;;;;;;0.52;100.00;100935.11;1693783;83;21081;-81
2022/11/02 01:43:43;;;;;;;10.58;4.40;;;;;;;0.55;100.00;100942.28;1697613;82;21062;-81
2022/11/02 01:46:39;;;;;;;6.37;3.75;;;;;;;0.57;100.00;100938.02;1687483;82;21466;-81
2022/11/02 01:49:23;;;;;;;11.95;4.78;;;;;;;0.58;100.00;100936.49;1708896;82;21034;-81
2022/11/02 01:52:15;;;;;;;10.82;5.55;;;;;;;0.59;100.00;100930.59;1654112;83;20991;-81
2022/11/02 01:55:11;;;;;;;11.57;4.70;;;;;;;0.62;100.00;100936.94;1710061;81;20970;-81
2022/11/02 01:58:04;;;;;;;9.90;3.90;;;;;;;0.66;100.00;100935.48;1687634;83;20991;-81
2022/11/02 02:00:50;;;;;;;11.75;4.30;;;;;;;0.70;100.00;100930.02;1618721;86;21048;-81
2022/11/02 02:03:35;;;;;;;12.55;4.72;;;;;;;0.73;100.00;100923.41;1651372;85;22481;-81
2022/11/02 02:06:20;;;;;;;11.40;4.92;;;;;;;0.72;100.00;100915.86;1655525;84;21043;-81
2022/11/02 02:09:05;;;;;;;14.28;5.35;;;;;;;0.72;100.00;100913.17;1678174;84;21089;-81
2022/11/02 02:11:50;;;;;;;12.93;6.20;;;;;;;0.72;100.00;100901.55;1716128;82;21025;-81
2022/11/02 02:14:35;;;;;;;13.18;4.65;;;;;;;0.70;100.00;100905.81;1709137;83;21027;-81
2022/11/02 02:18:01;;;;;;;7.30;3.37;;;;;;;0.68;100.00;100898.45;1701319;82;21085;-81
2022/11/02 02:20:54;;;;;;;7.95;4.25;;;;;;;0.67;100.00;100892.77;1678977;83;21033;-81
2022/11/02 02:24:04;;;;;;;10.48;4.05;;;;;;;0.69;100.00;100887.99;1662824;83;26501;-81
2022/11/02 02:27:13;;;;;;;11.73;4.45;;;;;;;0.69;100.00;100883.95;1692649;83;21041;-81
2022/11/02 02:30:05;;;;;;;11.25;4.40;;;;;;;0.68;100.00;100884.19;1688416;82;21006;-81
2022/11/02 02:33:09;;;;;;;11.83;4.65;;;;;;;0.67;100.00;100887.39;1643403;84;21232;-81
2022/11/02 02:36:17;;;;;;;7.45;4.28;;;;;;;0.67;100.00;100887.39;1654436;83;21102;-81
2022/11/02 02:39:07;;;;;;;9.80;4.17;;;;;;;0.63;100.00;100876.72;1678377;84;21050;-81
2022/11/02 02:42:18;;;;;;;7.85;3.92;;;;;;;0.59;100.00;100868.73;1702639;82;21021;-81
2022/11/02 02:45:22;;;;;;;8.18;3.67;;;;;;;0.57;100.00;100864.06;1708723;81;21013;-81
2022/11/02 02:48:19;;;;;;;7.65;4.12;;;;;;;0.54;100.00;100861.27;1637253;85;21003;-81
2022/11/02 02:51:07;;;;;;;8.33;4.10;;;;;;;0.50;100.00;100860.56;1670264;84;21473;-81
2022/11/02 02:54:10;;;;;;;14.63;4.83;;;;;;;0.46;100.00;100860.13;1709460;82;21128;-81
2022/11/02 02:56:57;;;;;;;18.83;5.20;;;;;;;0.41;100.00;100858.03;1653110;85;21038;-81
2022/11/02 02:59:44;;;;;;;11.00;4.58;;;;;;;0.36;100.00;100855.13;1699050;83;21002;-81
2022/11/02 03:02:32;;;;;;;11.35;4.50;;;;;;;0.32;100.00;100861.95;1690397;83;21006;-81
2022/11/02 03:05:34;;;;;;;11.70;5.08;;;;;;;0.30;100.00;100861.84;1709147;82;21025;-81
2022/11/02 03:08:20;;;;;;;8.85;4.33;;;;;;;0.25;100.00;100856.22;1694823;82;21065;-81
2022/11/02 03:11:17;;;;;;;16.17;5.70;;;;;;;0.23;100.00;100846.21;1715965;81;21037;-81
2022/11/02 03:14:20;;;;;;;15.05;6.20;;;;;;;0.22;100.00;100848.05;1656650;85;21073;-81
2022/11/02 03:17:18;;;;;;;12.03;4.83;;;;;;;0.21;100.00;100844.53;1695105;82;21095;-81
2022/11/02 03:20:23;;;;;;;9.38;4.55;;;;;;;0.21;100.00;100841.02;1675411;83;21580;-81
2022/11/02 03:23:35;;;;;;;10.53;4.15;;;;;;;0.19;100.00;100846.59;1647605;84;21111;-81
2022/11/02 03:26:24;;;;;;;;;;;;;;;0.17;100.00;100840.61;1699415;82;21083;-81
2022/11/02 03:29:14;;;;;;;11.95;5.33;;;;;;;0.17;100.00;100838.41;1652090;84;20201;-81
2022/11/02 03:32:09;;;;;;;6.92;4.87;;;;;;;0.16;100.00;100838.11;1701549;82;21123;-81
2022/11/02 03:34:58;;;;;;;13.45;5.75;;;;;;;0.12;100.00;100826.09;1702829;83;20998;-81
2022/11/02 03:38:00;;;;;;;14.85;5.15;;;;;;;0.10;100.00;100827.66;1709075;81;21046;-81
2022/11/02 03:40:48;;;;;;;8.48;3.55;;;;;;;0.09;100.00;100822.48;1707444;82;21017;-81
2022/11/02 03:43:34;;;;;;;9.85;5.08;;;;;;;0.07;100.00;100828.56;1673148;83;21096;-81
2022/11/02 03:46:19;;;;;;;9.05;4.45;;;;;;;0.05;100.00;100819.87;1634063;85;21037;-81
2022/11/02 03:49:05;;;;;;;11.53;5.65;;;;;;;0.03;100.00;100819.27;1664365;84;21046;-81
2022/11/02 03:51:50;;;;;;;9.38;4.33;;;;;;;0.04;100.00;100819.05;1652950;84;21453;-81
2022/11/02 03:55:04;;;;;;;15.35;5.42;;;;;;;0.03;100.00;100817.92;1646086;85;21020;-81
2022/11/02 06:15:30;;;;;;;21.52;7.95;;;;;;;2.07;100.00;100754.69;1808697;77;22646;-84
2022/11/02 06:18:15;;;;;;;21.10;8.63;;;;;;;2.35;100.00;100758.38;1756996;80;20986;-83
2022/11/02 06:21:00;;;;;;;17.67;8.45;;;;;;;2.69;100.00;100762.99;1758869;80;21066;-83
2022/11/02 06:23:48;;;;;;;22.62;8.65;;;;;;;3.04;100.00;100767.06;1745309;80;20994;-83
2022/11/02 06:26:34;;;;;;;18.05;9.03;;;;;;;3.40;100.00;100763.07;1777750;79;21019;-84
2022/11/02 06:29:19;;;;;;;17.32;7.37;;;;;;;3.80;100.00;100763.96;1772911;79;20994;-85
2022/11/02 06:32:04;;;;;;;22.37;9.45;;;;;;;4.17;100.00;100757.13;1766606;79;21032;-84
2022/11/02 06:34:49;;;;;;;26.55;10.98;;;;;;;4.56;100.00;100754.91;1775109;79;21504;-83
2022/11/02 06:37:34;;;;;;;28.55;11.95;;;;;;;4.92;100.00;100749.00;1772367;79;20998;-83
2022/11/02 06:40:20;;;;;;;19.40;10.00;;;;;;;5.21;100.00;100749.95;1770699;79;21032;-83
2022/11/02 06:43:05;;;;;;;21.37;7.55;;;;;;;5.46;100.00;100733.96;1769048;79;21453;-83
2022/11/02 06:45:57;;;;;;;23.45;7.85;;;;;;;5.65;100.00;100725.15;1766590;79;21101;-82
2022/11/02 06:48:41;;;;;;;15.50;7.58;;;;;;;5.84;100.00;100727.16;1761850;79;21012;-81
2022/11/02 06:51:26;;;;;;;12.98;5.53;;;;;;;6.09;100.00;100713.30;1769891;79;21041;-80
2022/11/02 06:54:11;;;;;;;11.25;5.90;;;;;;;6.32;100.00;100707.73;1769692;79;21443;-82
2022/11/02 06:56:57;;;;;;;15.53;4.92;;;;;;;6.55;100.00;100692.36;1765434;80;21025;-80
2022/11/02 06:59:41;;;;;;;11.48;4.58;;;;;;;6.78;100.00;100679.16;1756084;79;21007;-81
2022/11/02 07:02:26;;;;;;;18.48;5.58;;;;;;;7.01;100.00;100680.85;1728348;81;21042;-80
2022/11/02 07:05:18;;;;;;;11.38;4.75;;;;;;;7.23;100.00;100684.42;1720303;81;20982;-81
2022/11/02 07:08:03;;;;;;;12.90;4.67;;;;;;;7.44;100.00;100684.16;1720479;82;21000;-80
2022/11/02 07:10:47;;;;;;;10.72;5.28;;;;;;;7.66;100.00;100681.95;1719152;81;21512;-81
2022/11/02 07:13:33;;;;;;;10.65;5.20;;;;;;;7.86;100.00;100674.04;1730321;81;20991;-81
2022/11/02 07:16:18;;;;;;;10.18;5.05;;;;;;;8.05;100.00;100664.96;1713592;82;20952;-81
2022/11/02 07:19:03;;;;;;;9.85;4.58;;;;;;;8.24;100.00;100667.33;1733000;81;20956;-81
2022/11/02 07:22:07;;;;;;;12.68;4.70;;;;;;;8.41;100.00;100663.97;1731429;77;77416;-84
2022/11/02 07:28:46;;;;;;;8.03;4.20;;;;;;;8.88;100.00;100646.87;1640506;86;21088;-85
2022/11/02 07:31:35;;;;;;;9.70;4.37;;;;;;;9.22;100.00;100647.86;1638712;85;21043;-85
2022/11/02 07:34:21;;;;;;;13.38;5.05;;;;;;;9.40;100.00;100650.13;1581401;87;21017;-85
2022/11/02 07:37:07;;;;;;;10.00;3.80;;;;;;;9.48;100.00;100644.16;1589015;86;21857;-85
2022/11/02 07:39:53;;;;;;;7.92;4.03;;;;;;;9.50;100.00;100634.91;1614801;87;21054;-86
2022/11/02 07:42:44;;;;;;;16.45;4.37;;;;;;;9.56;100.00;100627.00;1594460;88;21468;-86
2022/11/02 08:36:56;;;;;;;13.13;5.60;;;;;;;10.53;100.00;100630.70;1624942;86;21195;-85
2022/11/02 08:39:42;;;;;;;13.53;6.08;;;;;;;10.55;100.00;100627.67;1636100;86;21062;-86
2022/11/02 08:42:26;;;;;;;16.55;6.12;;;;;;;10.66;100.00;100632.05;1652565;86;21090;-86
2022/11/02 08:45:12;;;;;;;17.57;8.13;;;;;;;10.71;100.00;100623.84;1647973;86;21029;-86
2022/11/02 08:47:57;;;;;;;32.15;10.88;;;;;;;10.76;100.00;100621.65;1653538;86;21415;-85
2022/11/02 08:50:47;;;;;;;15.05;6.92;;;;;;;10.81;100.00;100624.92;1653377;86;21184;-86
2022/11/02 08:53:32;;;;;;;11.95;5.37;;;;;;;10.88;100.00;100627.63;1652455;86;21050;-86
2022/11/02 08:56:20;;;;;;;9.43;4.92;;;;;;;10.98;100.00;100622.69;1635352;85;21037;-86
2022/11/02 08:59:09;;;;;;;13.30;5.50;;;;;;;11.08;100.00;100618.55;1622466;87;21070;-86
2022/11/02 09:01:54;;;;;;;14.55;5.60;;;;;;;11.12;100.00;100618.25;1626904;86;21052;-85
2022/11/02 09:04:41;;;;;;;12.85;5.12;;;;;;;11.12;100.00;100616.87;1592831;87;21081;-85
2022/11/02 09:07:27;;;;;;;12.33;6.00;;;;;;;11.14;100.00;100614.69;1666028;84;21057;-85
2022/11/02 09:10:14;;;;;;;15.35;7.37;;;;;;;11.15;100.00;100612.24;1643674;86;21074;-86
2022/11/02 09:13:05;;;;;;;15.40;5.85;;;;;;;11.22;100.00;100610.55;1665873;84;21073;-86
2022/11/02 09:15:54;;;;;;;14.03;5.72;;;;;;;11.25;100.00;100607.81;1604571;87;21073;-86
2022/11/02 09:18:43;;;;;;;10.93;5.47;;;;;;;11.28;100.00;100608.64;1634868;86;21001;-86
2022/11/02 09:21:31;;;;;;;12.45;5.55;;;;;;;11.31;100.00;100602.59;1610478;85;21017;-86
2022/11/02 09:24:19;;;;;;;12.25;5.97;;;;;;;11.35;100.00;100609.13;1597834;88;21026;-86
2022/11/02 09:27:05;;;;;;;13.78;5.83;;;;;;;11.31;100.00;100610.25;1631705;87;21014;-86
2022/11/02 09:29:55;;;;;;;15.90;5.95;;;;;;;11.28;100.00;100612.19;1592059;87;21082;-86
2022/11/02 09:32:43;;;;;;;14.35;5.80;;;;;;;11.26;100.00;100606.73;1589638;88;21554;-85
2022/11/02 09:35:33;;;;;;;10.60;5.28;;;;;;;11.21;100.00;100593.08;1619492;86;21083;-86
2022/11/02 09:38:21;;;;;;;16.32;5.95;;;;;;;11.28;100.00;100596.33;1563470;90;21100;-85
2022/11/02 09:41:26;;;;;;;11.90;5.83;;;;;;;11.37;100.00;100587.78;1575636;88;21102;-86
2022/11/02 09:44:31;;;;;;;12.35;5.60;;;;;;;11.45;100.00;100587.73;1620609;86;21102;-86
2022/11/02 09:47:16;;;;;;;14.25;6.08;;;;;;;11.51;100.00;100590.17;1606193;86;21093;-86
2022/11/02 09:50:04;;;;;;;13.80;5.75;;;;;;;11.62;100.00;100586.82;1582379;88;21456;-86
2022/11/02 09:52:55;;;;;;;10.95;5.58;;;;;;;11.60;100.00;100583.02;1567713;90;20939;-86
2022/11/02 09:55:46;;;;;;;14.93;6.13;;;;;;;11.67;100.00;100585.98;1575667;89;21420;-86
2022/11/02 09:58:39;;;;;;;12.40;5.60;;;;;;;11.72;100.00;100585.94;1594554;89;21026;-86
